createdAt,value
2019-02-19T00:00:43.661Z,7.97
2019-02-19T00:05:47.195Z,8.23
2019-02-19T00:10:50.614Z,8.83
2019-02-19T00:15:54.098Z,8.50
2019-02-19T00:20:57.614Z,8.57
2019-02-19T00:26:01.024Z,8.47
2019-02-19T00:31:04.470Z,8.23
2019-02-19T00:36:08.108Z,9.03
2019-02-19T00:41:11.527Z,9.53
2019-02-19T00:46:14.994Z,8.50
2019-02-19T00:51:20.585Z,9.03
2019-02-19T00:56:24.024Z,9.30
2019-02-19T01:01:27.512Z,9.03
2019-02-19T01:06:31.012Z,8.70
2019-02-19T01:11:34.425Z,8.97
2019-02-19T01:16:37.844Z,9.50
2019-02-19T01:21:41.296Z,9.23
2019-02-19T01:26:44.895Z,8.87
2019-02-19T01:31:48.424Z,9.63
2019-02-19T01:36:51.835Z,8.37
2019-02-19T01:41:55.288Z,9.40
2019-02-19T01:46:58.731Z,9.17
2019-02-19T01:52:02.139Z,9.20
2019-02-19T01:57:05.561Z,9.50
2019-02-19T02:02:09.036Z,9.97
2019-02-19T02:07:12.480Z,8.20
2019-02-19T02:12:15.921Z,9.10
2019-02-19T02:17:19.347Z,9.23
2019-02-19T02:22:22.786Z,9.33
2019-02-19T02:27:26.201Z,9.97
2019-02-19T02:32:29.635Z,8.67
2019-02-19T02:37:33.065Z,10.23
2019-02-19T02:42:36.469Z,9.83
2019-02-19T02:47:39.917Z,10.33
2019-02-19T02:52:43.349Z,12.03
2019-02-19T02:57:46.789Z,11.67
2019-02-19T03:02:50.206Z,12.40
2019-02-19T03:07:55.324Z,12.80
2019-02-19T03:12:58.746Z,14.83
2019-02-19T03:18:02.360Z,16.97
2019-02-19T03:23:05.801Z,18.93
2019-02-19T03:28:09.219Z,19.43
2019-02-19T03:33:12.692Z,18.33
2019-02-19T03:38:16.123Z,17.73
2019-02-19T03:43:19.662Z,16.67
2019-02-19T03:48:23.077Z,19.83
2019-02-19T03:53:26.713Z,20.03
2019-02-19T03:58:30.104Z,17.97
2019-02-19T04:03:33.726Z,18.10
2019-02-19T04:08:42.974Z,16.37
2019-02-19T04:13:59.035Z,20.07
2019-02-19T04:18:53.525Z,19.13
2019-02-19T04:23:57.000Z,17.90
2019-02-19T04:29:00.509Z,21.57
2019-02-19T04:34:03.994Z,20.43
2019-02-19T04:39:07.639Z,18.63
2019-02-19T04:44:15.411Z,18.83
2019-02-19T04:49:18.889Z,20.23
2019-02-19T04:54:25.471Z,20.43
2019-02-19T04:59:31.894Z,20.77
2019-02-19T05:04:40.431Z,21.40
2019-02-19T05:09:50.777Z,19.77
2019-02-19T05:14:54.274Z,19.93
2019-02-19T05:20:06.912Z,20.23
2019-02-19T05:25:16.254Z,20.23
2019-02-19T05:30:26.849Z,19.63
2019-02-19T05:35:49.517Z,20.30
2019-02-19T05:40:52.950Z,19.83
2019-02-19T05:45:56.415Z,19.50
2019-02-19T05:50:59.811Z,19.00
2019-02-19T05:56:03.238Z,19.27
2019-02-19T06:01:06.686Z,20.03
2019-02-19T06:06:10.115Z,19.87
2019-02-19T06:11:13.548Z,18.60
2019-02-19T06:16:16.995Z,22.07
2019-02-19T06:21:20.419Z,19.43
2019-02-19T06:26:23.866Z,20.33
2019-02-19T06:31:27.358Z,21.70
2019-02-19T06:36:30.791Z,21.20
2019-02-19T06:41:34.241Z,19.47
2019-02-19T06:46:37.679Z,21.50
2019-02-19T06:51:41.111Z,22.43
2019-02-19T06:56:44.549Z,22.50
2019-02-19T07:01:52.222Z,25.13
2019-02-19T07:06:55.687Z,24.60
2019-02-19T07:11:59.119Z,22.13
2019-02-19T07:17:02.563Z,25.40
2019-02-19T07:22:06.671Z,22.80
2019-02-19T07:27:10.098Z,25.63
2019-02-19T07:32:13.538Z,25.23
2019-02-19T07:37:16.966Z,23.53
2019-02-19T07:42:20.437Z,24.20
2019-02-19T07:47:24.831Z,25.77
2019-02-19T07:52:28.375Z,23.53
2019-02-19T07:57:31.797Z,23.90
2019-02-19T08:02:35.211Z,25.00
2019-02-19T08:07:38.654Z,22.73
2019-02-19T08:12:42.068Z,24.93
2019-02-19T08:17:45.488Z,24.10
2019-02-19T08:22:48.926Z,22.20
2019-02-19T08:27:52.348Z,23.73
2019-02-19T08:32:55.800Z,23.40
2019-02-19T08:37:59.660Z,23.23
2019-02-19T08:43:03.077Z,24.60
2019-02-19T08:48:06.503Z,24.97
2019-02-19T08:53:10.303Z,22.03
2019-02-19T08:58:13.719Z,25.77
2019-02-19T09:03:17.145Z,23.83
2019-02-19T09:08:20.570Z,22.70
2019-02-19T09:13:23.994Z,24.93
2019-02-19T09:18:27.510Z,21.13
2019-02-19T09:23:30.940Z,23.47
2019-02-19T09:28:34.374Z,21.83
2019-02-19T09:33:37.806Z,20.07
2019-02-19T09:38:41.235Z,17.17
2019-02-19T09:43:44.649Z,16.90
2019-02-19T09:48:48.062Z,17.73
2019-02-19T09:53:51.504Z,16.13
2019-02-19T09:58:54.927Z,18.30
2019-02-19T10:03:58.677Z,17.30
2019-02-19T10:09:02.106Z,17.47
2019-02-19T10:14:05.537Z,15.17
2019-02-19T10:19:08.970Z,18.70
2019-02-19T10:24:12.404Z,14.47
2019-02-19T10:29:15.834Z,15.50
2019-02-19T10:34:19.268Z,15.73
2019-02-19T10:39:22.712Z,12.17
2019-02-19T10:44:26.161Z,12.97
2019-02-19T10:49:29.592Z,12.90
2019-02-19T10:54:33.013Z,12.57
2019-02-19T10:59:36.432Z,11.23
2019-02-19T11:04:40.062Z,12.23
2019-02-19T11:09:43.466Z,9.33
2019-02-19T11:14:46.890Z,9.30
2019-02-19T11:19:50.748Z,8.17
2019-02-19T11:24:54.161Z,7.80
2019-02-19T11:29:57.654Z,7.40
2019-02-19T11:35:01.090Z,7.63
2019-02-19T11:40:06.153Z,8.10
2019-02-19T11:45:17.399Z,8.43
2019-02-19T11:50:20.814Z,8.53
2019-02-19T11:55:24.245Z,7.57
2019-02-19T12:00:38.031Z,8.17
2019-02-19T12:05:41.488Z,8.30
2019-02-19T12:10:44.967Z,8.40
2019-02-19T12:15:48.430Z,7.60
2019-02-19T12:20:51.857Z,8.33
2019-02-19T12:25:55.303Z,7.07
2019-02-19T12:30:58.731Z,7.67
2019-02-19T12:36:02.234Z,7.63
2019-02-19T12:41:05.668Z,7.80
2019-02-19T12:46:09.120Z,5.30
2019-02-19T12:51:12.553Z,5.53
2019-02-19T12:56:16.006Z,5.73
2019-02-19T13:01:19.416Z,6.00
2019-02-19T13:06:22.882Z,6.40
2019-02-19T13:11:26.326Z,7.43
2019-02-19T13:16:29.720Z,5.73
2019-02-19T13:21:33.146Z,5.97
2019-02-19T13:26:36.613Z,5.97
2019-02-19T13:31:40.042Z,6.30
2019-02-19T13:36:43.464Z,7.10
2019-02-19T13:41:46.908Z,6.90
2019-02-19T13:46:50.312Z,6.27
2019-02-19T13:51:55.391Z,5.77
2019-02-19T13:56:58.808Z,6.07
2019-02-19T14:02:02.254Z,5.20
2019-02-19T14:07:05.685Z,5.77
2019-02-19T14:12:09.121Z,8.47
2019-02-19T14:17:12.607Z,6.53
2019-02-19T14:27:39.875Z,6.80
2019-02-19T14:32:59.987Z,7.03
2019-02-19T14:38:21.336Z,6.93
2019-02-19T14:43:38.586Z,6.47
2019-02-19T14:48:43.655Z,6.40
2019-02-19T14:53:51.387Z,6.83
2019-02-19T14:58:56.439Z,6.47
2019-02-19T15:04:10.765Z,7.10
2019-02-19T15:09:21.626Z,6.50
2019-02-19T15:14:43.025Z,7.53
2019-02-19T15:19:53.777Z,7.93
2019-02-19T15:25:14.901Z,7.43
2019-02-19T15:30:25.881Z,6.47
2019-02-19T15:35:33.663Z,7.23
2019-02-19T15:40:38.731Z,7.87
2019-02-19T15:46:00.285Z,6.63
2019-02-19T15:51:05.405Z,6.67
2019-02-19T15:56:26.716Z,6.80
2019-02-19T16:01:48.280Z,7.03
2019-02-19T16:06:53.351Z,6.57
2019-02-19T16:12:07.645Z,7.87
2019-02-19T16:22:36.418Z,6.90
2019-02-19T16:27:41.489Z,6.73
2019-02-19T16:33:02.516Z,5.53
2019-02-19T16:38:07.580Z,6.33
2019-02-19T16:43:29.282Z,6.10
2019-02-19T16:48:43.379Z,6.70
2019-02-19T16:53:54.464Z,6.43
2019-02-19T16:59:07.373Z,6.87
2019-02-19T17:04:12.042Z,7.53
2019-02-19T17:09:20.240Z,7.27
2019-02-19T17:14:33.243Z,6.67
2019-02-19T17:19:52.012Z,6.37
2019-02-19T17:24:57.067Z,5.77
2019-02-19T17:30:11.824Z,5.87
2019-02-19T17:35:22.856Z,5.57
2019-02-19T17:40:44.111Z,5.37
2019-02-19T17:46:07.346Z,5.33
2019-02-19T17:51:27.335Z,5.23
2019-02-19T17:56:48.617Z,6.70
2019-02-19T18:01:53.665Z,4.90
2019-02-19T18:07:01.659Z,6.27
2019-02-19T18:12:21.542Z,6.27
2019-02-19T18:17:42.737Z,5.93
2019-02-19T18:22:46.200Z,4.93
2019-02-19T18:27:49.599Z,7.40
2019-02-19T18:32:53.031Z,8.40
2019-02-19T18:37:56.448Z,6.03
2019-02-19T18:42:59.860Z,8.37
2019-02-19T18:48:03.329Z,5.33
2019-02-19T18:53:07.036Z,4.73
2019-02-19T18:58:10.453Z,4.60
2019-02-19T19:03:13.905Z,5.83
2019-02-19T19:08:17.325Z,12.03
2019-02-19T19:13:20.725Z,12.10
2019-02-19T19:18:24.125Z,6.43
2019-02-19T19:23:27.574Z,4.90
2019-02-19T19:28:30.970Z,5.97
2019-02-19T19:33:34.441Z,8.17
2019-02-19T19:38:37.915Z,6.63
2019-02-19T19:43:41.376Z,4.47
2019-02-19T19:48:46.020Z,4.93
2019-02-19T19:53:49.604Z,5.63
2019-02-19T19:58:53.030Z,5.03
2019-02-19T20:03:57.058Z,5.20
2019-02-19T20:09:00.489Z,5.00
2019-02-19T20:14:03.932Z,5.83
2019-02-19T20:19:07.394Z,5.47
2019-02-19T20:34:16.166Z,5.47
2019-02-19T20:39:19.611Z,4.83
2019-02-19T20:54:28.500Z,4.83
2019-02-19T20:59:31.943Z,4.97
2019-02-19T21:04:35.349Z,5.23
2019-02-19T21:09:43.669Z,6.40
2019-02-19T21:24:49.439Z,6.13
2019-02-19T21:29:52.870Z,6.63
2019-02-19T21:34:56.316Z,7.07
2019-02-19T21:39:59.719Z,7.03
2019-02-19T21:45:03.227Z,6.43
2019-02-19T21:50:08.717Z,5.67
2019-02-19T21:55:13.744Z,8.00
2019-02-19T22:00:19.340Z,5.57
2019-02-19T22:05:22.754Z,5.73
2019-02-19T22:10:26.200Z,5.90
2019-02-19T22:15:29.645Z,4.97
2019-02-19T22:20:40.682Z,5.40
2019-02-19T22:25:44.182Z,5.00
2019-02-19T22:30:47.605Z,4.83
2019-02-19T22:35:51.056Z,4.87
2019-02-19T22:40:55.413Z,5.63
2019-02-19T22:45:59.009Z,4.07
2019-02-19T22:51:02.476Z,3.83
2019-02-19T22:56:07.555Z,4.30
2019-02-19T23:01:14.125Z,4.57
2019-02-19T23:06:17.576Z,4.40
2019-02-19T23:11:21.014Z,4.80
2019-02-19T23:16:24.421Z,3.53
2019-02-19T23:21:27.898Z,3.13
2019-02-19T23:26:31.599Z,3.97
2019-02-19T23:31:35.062Z,4.30
2019-02-19T23:36:43.015Z,3.13
2019-02-19T23:41:46.421Z,3.73
2019-02-19T23:46:49.841Z,4.23
2019-02-19T23:51:53.301Z,4.07
2019-02-19T23:56:56.719Z,3.73
